Time;durP1;ratioP1;P1;durP2;ratioP2;P2;SDS_P1;SDS_P2;PMS_P1;PMS_P2;Temp;Humidity;BMP_temperature;BMP_pressure;BME280_temperature;BME280_humidity;BME280_pressure;Samples;Min_cycle;Max_cycle;Signal;HPM_P1;HPM_P2
2022/07/10 00:06:46;;;;;;;0.43;0.43;;;15.90;99.90;16.90;102643.00;;;;4956053;29;20202;-67
2022/07/10 00:09:30;;;;;;;0.40;0.40;;;16.20;99.90;16.80;102643.00;;;;4991713;28;20203;-67
2022/07/10 00:12:19;;;;;;;0.40;0.40;;;16.20;99.90;17.00;102635.00;;;;4993983;28;20756;-67
2022/07/10 00:15:15;;;;;;;0.50;0.50;;;16.20;99.90;17.00;102625.00;;;;4991925;28;20250;-67
2022/07/10 00:18:01;;;;;;;0.30;0.30;;;16.40;99.90;17.10;102646.00;;;;4994243;28;20545;-67
2022/07/10 00:20:47;;;;;;;0.40;0.40;;;16.40;99.90;16.80;102635.00;;;;4977703;28;20225;-67
2022/07/10 00:23:35;;;;;;;0.40;0.40;;;16.50;99.90;16.40;102627.00;;;;4992192;28;20192;-67
2022/07/10 00:26:39;;;;;;;0.40;0.40;;;16.20;99.90;16.90;102627.00;;;;4993757;28;20605;-67
2022/07/10 00:29:28;;;;;;;0.53;0.53;;;16.20;99.90;16.80;102605.00;;;;4991907;28;20615;-67
2022/07/10 00:32:34;;;;;;;0.50;0.50;;;16.20;99.90;16.60;102632.00;;;;4991302;28;20218;-67
2022/07/10 00:35:20;;;;;;;0.90;0.90;;;16.20;99.90;16.50;102626.00;;;;4992101;28;20639;-67
2022/07/10 00:38:09;;;;;;;0.30;0.30;;;16.10;99.90;16.60;102631.00;;;;4993384;28;20226;-67
2022/07/10 00:40:55;;;;;;;0.37;0.37;;;16.10;99.90;16.70;102629.00;;;;4991727;28;20187;-67
2022/07/10 00:44:00;;;;;;;0.40;0.40;;;16.10;99.90;16.30;102588.00;;;;4993538;28;20199;-67
2022/07/10 00:46:44;;;;;;;0.60;0.60;;;16.00;99.90;16.30;102611.00;;;;4989117;28;20270;-67
2022/07/10 00:49:34;;;;;;;0.30;0.30;;;15.90;99.90;16.40;102617.00;;;;4993493;28;20192;-67
2022/07/10 00:52:38;;;;;;;0.30;0.30;;;15.80;99.90;16.10;102620.00;;;;4991169;28;20221;-67
2022/07/10 00:55:25;;;;;;;0.40;0.40;;;15.80;99.90;16.00;102603.00;;;;4988476;28;20193;-67
2022/07/10 00:58:11;;;;;;;0.40;0.40;;;15.60;99.90;16.30;102607.00;;;;4993120;28;20655;-67
2022/07/10 01:00:57;;;;;;;0.40;0.40;;;15.60;99.90;16.40;102602.00;;;;4993385;28;20306;-67
2022/07/10 01:03:53;;;;;;;0.40;0.40;;;15.60;99.90;16.30;102602.00;;;;4991329;28;20681;-67
2022/07/10 01:06:43;;;;;;;0.40;0.40;;;15.70;99.90;16.30;102596.00;;;;4991099;28;20190;-67
2022/07/10 01:09:29;;;;;;;0.40;0.40;;;15.70;99.90;16.30;102604.00;;;;5040666;28;20248;-67
2022/07/10 01:12:17;;;;;;;0.40;0.40;;;15.60;99.90;16.30;102574.00;;;;5036986;28;20206;-67
2022/07/10 01:15:04;;;;;;;0.43;0.43;;;15.60;99.90;16.60;102586.00;;;;5036760;28;20193;-67
2022/07/10 01:17:53;;;;;;;0.30;0.30;;;15.80;99.90;16.30;102602.00;;;;5036403;28;20181;-67
2022/07/10 01:20:42;;;;;;;0.40;0.40;;;15.70;99.90;16.80;102558.00;;;;5037186;28;20189;-67
2022/07/10 01:23:26;;;;;;;0.30;0.30;;;15.90;99.90;16.50;102581.00;;;;5022319;28;20183;-67
2022/07/10 01:26:10;;;;;;;0.40;0.40;;;15.90;99.90;16.50;102562.00;;;;5036535;28;20265;-67
2022/07/10 01:28:54;;;;;;;0.40;0.40;;;16.00;99.90;16.70;102590.00;;;;5036135;28;20549;-67
2022/07/10 01:31:41;;;;;;;0.40;0.40;;;16.00;99.90;16.40;102587.00;;;;5036046;28;20216;-67
2022/07/10 01:34:28;;;;;;;0.40;0.40;;;15.90;99.90;16.40;102595.00;;;;5036106;28;20191;-67
2022/07/10 01:37:32;;;;;;;0.40;0.40;;;15.90;99.90;16.60;102594.00;;;;5038482;28;20193;-67
2022/07/10 01:40:15;;;;;;;0.40;0.40;;;16.00;99.90;16.30;102554.00;;;;5035892;28;20203;-67
2022/07/10 01:42:59;;;;;;;0.40;0.40;;;15.80;99.90;16.20;102570.00;;;;5036377;28;20225;-67
2022/07/10 01:45:44;;;;;;;0.47;0.47;;;15.60;99.90;16.30;102595.00;;;;5036139;28;20195;-67
2022/07/10 01:48:38;;;;;;;0.40;0.40;;;15.50;99.90;16.10;102580.00;;;;5036451;28;20188;-67
2022/07/10 01:51:46;;;;;;;0.40;0.40;;;15.70;99.90;16.30;102580.00;;;;5038554;28;20283;-67
2022/07/10 01:54:49;;;;;;;0.40;0.40;;;15.60;99.90;16.60;102577.00;;;;5037072;28;20192;-67
2022/07/10 01:57:44;;;;;;;0.40;0.40;;;15.70;99.90;16.40;102589.00;;;;5039586;28;20183;-67
2022/07/10 02:00:19;;;;;;;0.40;0.40;;;15.80;99.90;16.20;102577.00;;;;5047705;28;20299;-67
2022/07/10 02:06:26;;;;;;;0.50;0.50;;;15.50;99.90;16.30;102581.00;;;;5052417;28;20233;-67
2022/07/10 02:09:29;;;;;;;0.30;0.30;;;15.70;99.90;16.40;102580.00;;;;5023252;28;20187;-67
2022/07/10 02:12:41;;;;;;;0.40;0.40;;;15.90;99.90;16.30;102587.00;;;;5022730;28;20220;-67
2022/07/10 02:15:10;;;;;;;0.40;0.40;;;15.90;99.90;16.50;102588.00;;;;5024151;28;20184;-67
2022/07/10 02:17:54;;;;;;;0.40;0.40;;;15.70;99.90;16.40;102587.00;;;;5035780;28;20271;-67
2022/07/10 02:20:46;;;;;;;0.80;0.80;;;15.80;99.90;16.70;102581.00;;;;5035795;28;20183;-67
2022/07/10 02:23:33;;;;;;;0.40;0.40;;;16.00;99.90;16.60;102573.00;;;;5035545;28;20193;-67
2022/07/10 02:26:20;;;;;;;0.40;0.40;;;16.00;99.90;16.60;102566.00;;;;5035560;28;20235;-67
2022/07/10 02:29:08;;;;;;;0.40;0.40;;;16.00;99.90;16.60;102583.00;;;;5052344;28;20181;-67
2022/07/10 02:32:00;;;;;;;0.40;0.40;;;16.00;99.90;16.80;102592.00;;;;5020745;28;20206;-67
2022/07/10 02:34:47;;;;;;;0.50;0.50;;;16.00;99.90;16.80;102605.00;;;;5035168;28;20548;-67
2022/07/10 02:37:49;;;;;;;0.40;0.40;;;16.20;99.90;15.70;102588.00;;;;5035385;28;20258;-66
2022/07/10 02:55:15;;;;;;;0.40;0.40;;;15.30;99.90;15.80;102566.00;;;;5074036;28;20769;-65
2022/07/10 02:57:59;;;;;;;0.40;0.40;;;15.20;99.90;15.50;102563.00;;;;5037854;28;20188;-65
2022/07/10 03:00:44;;;;;;;0.40;0.40;;;15.00;99.90;15.60;102556.00;;;;5038352;28;20730;-65
2022/07/10 03:03:38;;;;;;;0.50;0.50;;;14.90;99.90;15.70;102544.00;;;;5038421;28;20522;-65
2022/07/10 03:07:11;;;;;;;0.50;0.50;;;14.90;99.90;15.30;102546.00;;;;5035737;28;20681;-66
2022/07/10 03:09:55;;;;;;;0.50;0.50;;;14.90;99.90;15.20;102543.00;;;;5040154;28;20563;-66
2022/07/10 03:12:24;;;;;;;0.40;0.40;;;14.70;99.90;15.00;102535.00;;;;5038471;28;20204;-66
2022/07/10 03:15:08;;;;;;;0.50;0.50;;;14.60;99.90;14.90;102529.00;;;;5038534;28;20546;-66
2022/07/10 03:17:52;;;;;;;0.50;0.50;;;14.40;99.90;14.40;102543.00;;;;5038126;28;20184;-66
2022/07/10 03:20:38;;;;;;;0.40;0.40;;;14.30;99.90;14.60;102546.00;;;;5041879;28;20547;-66
2022/07/10 03:23:26;;;;;;;0.50;0.50;;;14.20;99.90;15.00;102545.00;;;;5041793;28;20331;-66
2022/07/10 03:26:12;;;;;;;0.80;0.80;;;14.20;99.90;15.10;102544.00;;;;5027316;28;20193;-66
2022/07/10 03:28:58;;;;;;;0.50;0.50;;;14.30;99.90;15.10;102541.00;;;;5042149;28;20195;-66
2022/07/10 03:32:00;;;;;;;0.50;0.50;;;14.40;99.90;15.30;102536.00;;;;5041554;28;20217;-66
2022/07/10 03:34:44;;;;;;;0.57;0.57;;;14.60;99.90;14.90;102527.00;;;;5041808;28;20299;-66
2022/07/10 03:37:21;;;;;;;0.60;0.60;;;14.60;99.90;15.20;102535.00;;;;5041284;28;20633;-66
2022/07/10 03:40:08;;;;;;;0.50;0.50;;;14.70;99.90;14.80;102527.00;;;;5042087;28;20224;-66
2022/07/10 03:42:54;;;;;;;0.50;0.50;;;14.50;99.90;15.30;102519.00;;;;5041575;28;20197;-66
2022/07/10 03:45:28;;;;;;;0.50;0.50;;;14.60;99.90;15.20;102529.00;;;;5041422;28;20287;-65
2022/07/10 03:48:16;;;;;;;0.50;0.50;;;14.60;99.90;15.10;102512.00;;;;5041656;28;20183;-66
2022/07/10 03:51:05;;;;;;;0.50;0.50;;;14.60;99.90;15.30;102548.00;;;;5041445;28;20191;-66
2022/07/10 03:53:52;;;;;;;0.50;0.50;;;14.50;99.90;15.50;102552.00;;;;5026708;28;20641;-66
2022/07/10 03:59:49;;;;;;;0.50;0.50;;;14.90;99.90;15.50;102554.00;;;;5060873;28;20191;-66
2022/07/10 04:02:32;;;;;;;0.50;0.50;;;14.90;99.90;15.60;102555.00;;;;5041055;28;20200;-66
2022/07/10 04:05:19;;;;;;;0.50;0.50;;;14.90;99.90;15.80;102564.00;;;;5041302;28;20195;-65
2022/07/10 04:08:03;;;;;;;0.60;0.60;;;15.00;99.90;15.80;102564.00;;;;5025932;28;20186;-66
2022/07/10 04:11:10;;;;;;;0.50;0.50;;;15.00;99.90;15.90;102558.00;;;;5041113;28;20176;-66
2022/07/10 04:13:57;;;;;;;0.60;0.60;;;15.10;99.90;16.00;102561.00;;;;5042499;28;20237;-66
2022/07/10 04:16:40;;;;;;;0.50;0.50;;;15.20;99.90;15.90;102560.00;;;;5040961;28;20196;-65
2022/07/10 04:19:29;;;;;;;0.60;0.60;;;15.20;99.90;15.80;102564.00;;;;5041528;28;20193;-66
2022/07/10 04:22:27;;;;;;;0.50;0.50;;;15.20;99.90;15.90;102561.00;;;;5042765;28;20199;-66
2022/07/10 04:25:11;;;;;;;0.50;0.50;;;15.10;99.90;16.10;102569.00;;;;5034642;28;20646;-66
2022/07/10 04:28:01;;;;;;;0.50;0.50;;;15.30;99.90;16.30;102568.00;;;;5040941;28;20535;-66
2022/07/10 04:30:45;;;;;;;0.50;0.50;;;15.50;99.90;16.40;102564.00;;;;5040926;28;20529;-66
2022/07/10 04:33:28;;;;;;;0.50;0.50;;;15.60;99.90;16.90;102546.00;;;;5057155;28;20208;-66
2022/07/10 04:36:32;;;;;;;0.40;0.40;;;16.00;99.90;17.40;102557.00;;;;5057132;28;20185;-66
2022/07/10 04:39:26;;;;;;;0.30;0.30;;;16.30;99.90;18.70;102574.00;;;;5027874;28;20190;-66
2022/07/10 04:42:09;;;;;;;0.30;0.30;;;17.40;99.90;19.90;102561.00;;;;5043366;28;20283;-66
2022/07/10 04:44:53;;;;;;;0.20;0.20;;;18.40;99.90;21.10;102587.00;;;;5040689;28;20177;-66
2022/07/10 04:47:39;;;;;;;0.20;0.20;;;19.50;99.90;22.00;102629.00;;;;5056994;28;20183;-66
2022/07/10 04:50:14;;;;;;;0.15;0.15;;;20.40;99.90;22.40;102670.00;;;;5040186;28;20182;-66
2022/07/10 04:53:15;;;;;;;0.20;0.20;;;21.00;99.90;22.40;102677.00;;;;5040283;28;20222;-66
2022/07/10 04:56:02;;;;;;;0.20;0.20;;;21.10;99.90;23.10;102688.00;;;;5040290;28;20189;-66
2022/07/10 04:58:53;;;;;;;0.10;0.10;;;21.60;99.90;23.10;102689.00;;;;5040102;28;20268;-66
2022/07/10 05:01:57;;;;;;;0.20;0.20;;;21.80;99.90;21.80;102677.00;;;;5040338;28;20280;-66
2022/07/10 05:04:43;;;;;;;0.22;0.22;;;21.40;99.90;23.50;102700.00;;;;5039947;28;20269;-66
2022/07/10 05:07:27;;;;;;;0.15;0.15;;;21.80;99.90;25.20;102696.00;;;;5025452;28;20176;-67
2022/07/10 05:10:14;;;;;;;0.10;0.10;;;23.00;99.90;24.70;102718.00;;;;5040023;28;20173;-66
2022/07/10 05:12:58;;;;;;;0.20;0.20;;;23.70;99.90;23.60;102679.00;;;;5024854;28;20202;-66
2022/07/10 05:15:42;;;;;;;0.10;0.10;;;22.50;99.90;23.20;102716.00;;;;5040104;28;20264;-66
2022/07/10 05:18:34;;;;;;;0.20;0.20;;;22.10;99.90;22.70;102691.00;;;;5056309;28;20177;-66
2022/07/10 05:21:18;;;;;;;0.20;0.20;;;21.50;99.90;21.60;102687.00;;;;5039995;28;20239;-66
2022/07/10 05:24:22;;;;;;;0.20;0.20;;;20.80;99.90;22.00;102683.00;;;;5056439;28;20703;-66
2022/07/10 05:27:08;;;;;;;0.55;0.55;;;20.60;99.90;23.80;102701.00;;;;5040915;28;20196;-66
2022/07/10 05:29:52;;;;;;;0.10;0.10;;;21.80;99.90;24.10;102725.00;;;;5056125;28;20708;-66
2022/07/10 05:32:44;;;;;;;0.10;0.10;;;22.70;99.90;25.10;102719.00;;;;5056179;28;20250;-66
2022/07/10 05:35:27;;;;;;;0.10;0.10;;;23.30;99.90;26.30;102735.00;;;;5039277;28;20192;-66
2022/07/10 05:38:22;;;;;;;0.10;0.10;;;24.30;99.90;27.30;102721.00;;;;5056416;28;20182;-67
2022/07/10 05:41:05;;;;;;;0.10;0.10;;;25.50;99.90;26.10;102735.00;;;;5041694;28;20617;-66
2022/07/10 05:47:33;;;;;;;0.10;0.10;;;25.10;99.90;27.20;102728.00;;;;5071210;28;20201;-67
2022/07/10 05:50:17;;;;;;;0.10;0.10;;;25.60;99.90;27.90;102728.00;;;;5024415;28;20315;-67
2022/07/10 05:53:03;;;;;;;0.10;0.10;;;26.30;99.90;27.50;102735.00;;;;5039381;28;20209;-67
2022/07/10 05:55:50;;;;;;;0.10;0.10;;;26.10;99.90;25.90;102730.00;;;;5040948;28;20157;-66
2022/07/10 05:58:34;;;;;;;0.10;0.10;;;25.40;99.90;24.90;102725.00;;;;5039621;28;20192;-67
2022/07/10 06:01:20;;;;;;;0.10;0.10;;;24.20;99.90;24.00;102724.00;;;;5038787;28;20688;-66
2022/07/10 06:11:08;;;;;;;0.10;0.10;;;24.90;99.90;27.50;102721.00;;;;5073317;28;20184;-67
2022/07/10 06:13:57;;;;;;;0.10;0.10;;;25.80;99.90;27.40;102738.00;;;;5055283;28;20192;-67
2022/07/10 06:16:40;;;;;;;0.10;0.10;;;26.00;99.90;26.80;102734.00;;;;5023648;28;20188;-67
2022/07/10 06:19:06;;;;;;;0.10;0.10;;;25.70;99.90;24.00;102737.00;;;;5038156;28;20189;-67
2022/07/10 06:22:30;;;;;;;0.10;0.10;;;24.10;99.90;24.20;102712.00;;;;5037900;28;20688;-67
2022/07/10 06:24:46;;;;;;;0.20;0.20;;;23.40;99.90;24.00;102737.00;;;;5056977;28;20196;-67
2022/07/10 06:27:30;;;;;;;0.10;0.10;;;23.10;99.90;22.90;102717.00;;;;5038233;28;20664;-67
2022/07/10 06:30:13;;;;;;;0.55;0.50;;;22.50;99.90;21.90;102717.00;;;;5037642;28;20647;-67
2022/07/10 06:32:39;;;;;;;0.10;0.10;;;21.70;99.90;21.80;102700.00;;;;5037822;28;20607;-67
2022/07/10 06:35:08;;;;;;;0.20;0.20;;;21.10;99.90;21.80;102707.00;;;;5054593;28;20195;-67
2022/07/10 06:37:59;;;;;;;0.20;0.20;;;20.80;99.90;21.70;102692.00;;;;5038393;28;20185;-67
2022/07/10 06:40:45;;;;;;;0.20;0.20;;;20.90;99.90;20.10;102658.00;;;;5072129;28;20192;-67
2022/07/10 06:43:19;;;;;;;0.20;0.20;;;20.10;99.90;19.70;102625.00;;;;5038065;28;20195;-67
2022/07/10 06:45:49;;;;;;;1.13;0.73;;;19.50;99.90;20.70;102638.00;;;;5054446;28;20190;-67
2022/07/10 06:48:17;;;;;;;0.87;0.33;;;19.70;99.90;20.60;102623.00;;;;5054601;28;20220;-67
2022/07/10 06:51:05;;;;;;;0.20;0.20;;;19.80;99.90;20.50;102633.00;;;;5037828;28;20196;-67
2022/07/10 06:53:34;;;;;;;0.20;0.20;;;19.90;99.90;20.70;102596.00;;;;5039396;28;20240;-66
2022/07/10 06:56:02;;;;;;;0.20;0.20;;;19.80;99.90;20.90;102646.00;;;;5041532;28;20193;-67
2022/07/10 06:58:28;;;;;;;0.20;0.20;;;20.10;99.90;21.50;102660.00;;;;5042101;28;20648;-67
2022/07/10 07:01:23;;;;;;;0.10;0.10;;;20.40;99.90;21.90;102674.00;;;;5041917;28;20188;-66
2022/07/10 07:04:14;;;;;;;0.20;0.20;;;20.80;99.90;21.90;102692.00;;;;5028080;28;20228;-66
2022/07/10 07:07:50;;;;;;;0.20;0.20;;;21.10;99.90;22.90;102683.00;;;;5042808;28;20182;-67
2022/07/10 07:14:31;;;;;;;0.20;0.20;;;22.50;99.90;24.60;102728.00;;;;5072210;28;20613;-67
2022/07/10 07:17:21;;;;;;;0.10;0.10;;;23.20;99.90;24.10;102730.00;;;;5041775;28;20274;-66
2022/07/10 07:23:27;;;;;;;0.10;0.10;;;24.20;99.90;26.80;102751.00;;;;5061333;28;20718;-67
2022/07/10 07:26:11;;;;;;;0.10;0.10;;;25.10;99.90;26.50;102759.00;;;;5058365;28;20644;-66
2022/07/10 07:29:16;;;;;;;0.10;0.10;;;25.60;99.90;25.50;102728.00;;;;5058965;28;20188;-66
2022/07/10 07:31:59;;;;;;;0.10;0.10;;;24.90;99.90;25.30;102723.00;;;;5058475;28;20691;-66
2022/07/10 07:35:01;;;;;;;0.10;0.10;;;24.60;99.90;26.60;102750.00;;;;5041851;28;20637;-66
2022/07/10 07:37:40;;;;;;;0.10;0.10;;;25.00;99.90;26.10;102753.00;;;;5058594;28;20613;-67
2022/07/10 07:40:47;;;;;;;0.20;0.20;;;25.10;99.90;23.70;102737.00;;;;5076837;28;20631;-67
2022/07/10 07:43:31;;;;;;;0.10;0.10;;;24.30;99.90;23.70;102740.00;;;;5041661;28;20636;-66
2022/07/10 07:46:35;;;;;;;0.10;0.10;;;23.10;99.90;23.80;102739.00;;;;5075885;28;20252;-66
2022/07/10 07:49:24;;;;;;;0.45;0.45;;;22.80;99.90;24.80;102737.00;;;;5042965;28;20602;-67
2022/07/10 07:52:07;;;;;;;0.25;0.25;;;23.50;99.90;25.30;102734.00;;;;5075928;28;20258;-67
2022/07/10 07:54:53;;;;;;;0.30;0.30;;;24.20;99.90;24.20;102738.00;;;;5058195;28;20184;-67
2022/07/10 07:57:41;;;;;;;0.20;0.20;;;24.00;99.90;22.90;102709.00;;;;5076216;28;20170;-67
2022/07/10 08:00:47;;;;;;;1.17;0.40;;;23.20;99.90;22.90;102721.00;;;;5057939;28;20192;-66
2022/07/10 08:03:31;;;;;;;0.10;0.10;;;22.80;99.90;22.70;102723.00;;;;5042888;28;20169;-67
2022/07/10 08:06:17;;;;;;;0.10;0.10;;;22.50;99.90;23.10;102715.00;;;;5040741;28;20268;-66
2022/07/10 08:09:04;;;;;;;2.65;1.27;;;22.40;99.90;23.20;102724.00;;;;5057881;28;20188;-67
2022/07/10 08:11:53;;;;;;;0.10;0.10;;;22.60;99.90;24.20;102737.00;;;;5058114;28;20272;-67
2022/07/10 08:14:59;;;;;;;0.52;0.52;;;23.10;99.90;24.00;102738.00;;;;5056559;28;20195;-67
2022/07/10 08:18:03;;;;;;;0.10;0.10;;;23.40;99.90;24.20;102732.00;;;;5047100;28;20190;-66
2022/07/10 08:20:52;;;;;;;0.32;0.32;;;23.30;99.90;24.70;102744.00;;;;5075462;28;20184;-66
2022/07/10 08:23:39;;;;;;;0.10;0.10;;;23.60;99.90;23.70;102735.00;;;;5057902;28;20543;-66
2022/07/10 08:26:40;;;;;;;0.10;0.10;;;23.10;99.90;24.70;102733.00;;;;5041361;28;20299;-66
2022/07/10 08:29:44;;;;;;;0.10;0.10;;;23.50;99.90;25.60;102748.00;;;;5057178;28;20203;-66
2022/07/10 08:32:45;;;;;;;0.10;0.10;;;24.10;99.90;24.50;102716.00;;;;5027964;28;20215;-67
2022/07/10 08:35:28;;;;;;;0.10;0.10;;;24.50;99.90;25.90;102741.00;;;;5075349;28;20179;-67
2022/07/10 08:38:14;;;;;;;0.10;0.10;;;24.60;99.90;27.10;102746.00;;;;5057256;28;20246;-67
2022/07/10 08:41:05;;;;;;;0.10;0.10;;;25.40;99.90;26.90;102721.00;;;;5057735;28;20178;-67
2022/07/10 08:47:38;;;;;;;0.17;0.17;;;26.50;99.90;25.50;102753.00;;;;5056263;28;20268;-67
2022/07/10 08:50:24;;;;;;;0.10;0.10;;;25.20;99.90;26.20;102753.00;;;;5040490;28;20182;-67
2022/07/10 08:53:19;;;;;;;0.10;0.10;;;25.30;99.90;26.50;102749.00;;;;5040257;28;20672;-67
2022/07/10 08:55:48;;;;;;;0.10;0.10;;;25.40;99.90;27.50;102752.00;;;;5040651;28;20195;-67
2022/07/10 08:58:34;;;;;;;0.28;0.28;;;26.00;99.90;26.70;102756.00;;;;5056785;28;20621;-67
2022/07/10 09:01:22;;;;;;;0.10;0.10;;;26.10;99.90;27.90;102738.00;;;;5057216;28;20247;-67
2022/07/10 09:04:35;;;;;;;0.10;0.10;;;26.60;99.90;27.10;102744.00;;;;5040554;28;20240;-67
2022/07/10 09:11:18;;;;;;;0.10;0.10;;;27.10;99.90;28.40;102739.00;;;;5049556;28;20312;-68
2022/07/10 09:14:40;;;;;;;0.10;0.10;;;27.50;99.90;27.50;102746.00;;;;5056320;28;20194;-68
2022/07/10 09:17:53;;;;;;;0.10;0.10;;;27.30;99.90;28.80;102741.00;;;;5039073;28;20189;-67
2022/07/10 09:20:37;;;;;;;1.50;0.30;;;27.30;99.90;27.00;102748.00;;;;5056442;28;20525;-68
2022/07/10 09:23:26;;;;;;;0.20;0.20;;;26.90;99.90;26.00;102725.00;;;;5039555;28;20177;-67
2022/07/10 09:26:28;;;;;;;0.10;0.10;;;26.10;99.90;27.20;102740.00;;;;5045782;28;20217;-67
2022/07/10 09:29:24;;;;;;;0.10;0.10;;;26.00;99.90;26.80;102738.00;;;;5039565;28;20181;-67
2022/07/10 09:32:17;;;;;;;0.20;0.20;;;26.00;99.90;27.40;102731.00;;;;5047915;28;20225;-67
2022/07/10 09:38:25;;;;;;;0.10;0.10;;;26.40;99.90;27.60;102732.00;;;;5058796;28;20196;-67
2022/07/10 09:41:15;;;;;;;0.10;0.10;;;26.40;99.90;28.10;102733.00;;;;5041298;28;20185;-67
2022/07/10 09:43:58;;;;;;;0.10;0.10;;;26.60;99.90;26.10;102737.00;;;;5073701;28;20633;-69
2022/07/10 09:47:04;;;;;;;0.20;0.20;;;25.90;99.90;27.10;102725.00;;;;5072636;28;20186;-68
2022/07/10 09:50:23;;;;;;;0.10;0.10;;;25.80;99.90;26.50;102723.00;;;;5055841;28;20197;-68
2022/07/10 09:53:14;;;;;;;0.10;0.10;;;25.80;99.90;27.50;102714.00;;;;5073987;28;20201;-69
2022/07/10 09:56:01;;;;;;;0.30;0.30;;;26.30;99.90;28.40;102719.00;;;;5038894;28;20181;-69
2022/07/10 09:58:46;;;;;;;0.10;0.10;;;26.90;99.90;27.60;102728.00;;;;5039374;28;20189;-68
2022/07/10 10:01:50;;;;;;;0.20;0.20;;;27.30;99.90;27.70;102729.00;;;;5039032;28;20173;-68
2022/07/10 10:04:41;;;;;;;0.10;0.10;;;26.70;99.90;29.20;102702.00;;;;5040503;28;20181;-66
2022/07/10 10:07:28;;;;;;;1.48;1.38;;;27.60;99.90;28.10;102698.00;;;;5055566;28;20220;-68
2022/07/10 10:10:35;;;;;;;1.52;0.28;;;27.60;99.90;27.40;102723.00;;;;5038172;28;20204;-68
2022/07/10 10:13:27;;;;;;;0.10;0.10;;;27.30;99.90;28.10;102732.00;;;;5028601;28;20715;-69
2022/07/10 10:16:13;;;;;;;0.10;0.10;;;27.10;99.90;29.20;102705.00;;;;5039224;28;20200;-67
2022/07/10 10:33:33;;;;;;;0.10;0.10;;;25.10;99.90;26.00;102729.00;;;;5090650;28;20566;-67
2022/07/10 10:36:53;;;;;;;0.20;0.20;;;25.20;99.90;26.00;102724.00;;;;5069144;28;20192;-67
2022/07/10 10:39:52;;;;;;;0.63;0.63;;;25.30;99.90;26.50;102730.00;;;;5069096;28;20173;-67
2022/07/10 10:42:38;;;;;;;0.55;0.55;;;25.40;99.90;26.90;102718.00;;;;5052662;28;20181;-67
2022/07/10 10:45:27;;;;;;;0.17;0.17;;;25.60;99.90;26.60;102693.00;;;;5052088;28;20209;-67
2022/07/10 10:48:13;;;;;;;0.10;0.10;;;25.50;99.90;26.40;102697.00;;;;5070429;28;20588;-67
2022/07/10 10:50:49;;;;;;;0.10;0.10;;;25.40;99.90;26.90;102704.00;;;;5052546;28;20169;-67
2022/07/10 10:54:04;;;;;;;0.10;0.10;;;25.70;99.90;27.30;102677.00;;;;5052405;28;20177;-67
2022/07/10 10:57:12;;;;;;;0.10;0.10;;;26.10;99.90;27.20;102694.00;;;;5067989;28;20190;-67
2022/07/10 11:00:37;;;;;;;0.10;0.10;;;26.50;99.90;26.90;102696.00;;;;5069068;28;20190;-68
2022/07/10 11:03:24;;;;;;;0.10;0.10;;;26.00;99.90;26.80;102693.00;;;;5027946;28;20674;-68
2022/07/10 11:06:13;;;;;;;0.10;0.10;;;26.00;99.90;26.20;102668.00;;;;5012021;28;20183;-68
2022/07/10 11:09:20;;;;;;;0.40;0.30;;;25.50;99.90;25.70;102683.00;;;;5011360;28;20231;-68
2022/07/10 11:12:12;;;;;;;0.10;0.10;;;25.20;99.90;27.20;102688.00;;;;5027830;28;20267;-68
2022/07/10 11:15:19;;;;;;;1.15;0.32;;;25.80;99.90;25.60;102686.00;;;;5011847;28;20294;-68
2022/07/10 11:18:13;;;;;;;0.25;0.25;;;25.70;99.90;26.20;102690.00;;;;5009307;28;20370;-68
2022/07/10 11:20:45;;;;;;;0.10;0.10;;;25.30;99.90;26.30;102681.00;;;;5013956;28;20195;-68
2022/07/10 11:23:49;;;;;;;0.10;0.10;;;25.30;99.90;27.20;102672.00;;;;5011783;28;20653;-67
2022/07/10 11:26:21;;;;;;;0.20;0.20;;;26.00;99.90;25.20;102675.00;;;;5049214;28;20193;-67
2022/07/10 11:29:36;;;;;;;0.22;0.22;;;25.20;99.90;24.70;102657.00;;;;5068242;28;20235;-67
2022/07/10 11:32:25;;;;;;;0.10;0.10;;;24.40;99.90;25.60;102670.00;;;;5067958;28;20583;-67
2022/07/10 11:35:31;;;;;;;0.25;0.25;;;24.40;99.90;24.60;102659.00;;;;5068520;28;20182;-67
2022/07/10 11:38:26;;;;;;;0.10;0.10;;;24.60;99.90;26.50;102642.00;;;;5039576;28;20215;-67
2022/07/10 11:41:23;;;;;;;0.20;0.20;;;25.10;99.90;24.40;102653.00;;;;5051700;28;20177;-67
2022/07/10 11:47:55;;;;;;;0.10;0.10;;;24.40;99.90;26.00;102674.00;;;;5055993;28;20196;-67
2022/07/10 11:50:41;;;;;;;0.10;0.10;;;25.30;99.90;25.30;102662.00;;;;5038094;28;20688;-67
2022/07/10 11:53:26;;;;;;;0.10;0.10;;;25.20;99.90;26.90;102661.00;;;;5055616;28;20604;-67
2022/07/10 11:56:21;;;;;;;0.10;0.10;;;25.60;99.90;27.40;102668.00;;;;5038245;28;20185;-68
2022/07/10 11:59:00;;;;;;;0.10;0.10;;;26.10;99.90;26.70;102663.00;;;;5024243;28;20627;-67
2022/07/10 12:01:48;;;;;;;0.30;0.30;;;26.00;99.90;27.50;102669.00;;;;5054506;28;20186;-67
2022/07/10 12:08:45;;;;;;;0.10;0.10;;;26.40;99.90;27.60;102666.00;;;;5040935;28;20194;-67
2022/07/10 12:11:28;;;;;;;0.10;0.10;;;26.50;99.90;28.10;102669.00;;;;5053735;28;20629;-69
2022/07/10 12:14:18;;;;;;;0.80;0.80;;;26.90;99.90;28.20;102676.00;;;;5037529;28;20222;-68
2022/07/10 12:17:19;;;;;;;0.10;0.10;;;27.20;99.90;26.40;102669.00;;;;5038164;28;20594;-68
2022/07/10 12:20:04;;;;;;;0.10;0.10;;;26.50;99.90;26.20;102668.00;;;;5037571;28;20185;-68
2022/07/10 12:23:05;;;;;;;0.20;0.20;;;25.80;99.90;25.30;102635.00;;;;5037756;28;20210;-68
2022/07/10 12:26:13;;;;;;;0.10;0.10;;;25.30;99.90;26.00;102671.00;;;;5037370;28;20182;-68
2022/07/10 12:28:55;;;;;;;0.20;0.20;;;25.30;99.90;26.20;102670.00;;;;5026663;28;20182;-68
2022/07/10 12:31:43;;;;;;;0.10;0.10;;;25.40;99.90;25.60;102660.00;;;;5037653;28;20275;-68
2022/07/10 12:34:39;;;;;;;0.10;0.10;;;25.20;99.90;26.40;102664.00;;;;5054322;28;20518;-68
2022/07/10 12:37:26;;;;;;;0.20;0.20;;;25.40;99.90;25.30;102655.00;;;;5037819;28;20645;-68
2022/07/10 12:40:52;;;;;;;0.10;0.10;;;25.20;99.90;26.80;102658.00;;;;5054192;28;20232;-69
2022/07/10 12:43:54;;;;;;;0.20;0.20;;;25.60;99.90;26.70;102645.00;;;;5043969;28;20673;-68
2022/07/10 12:47:01;;;;;;;0.10;0.10;;;26.20;99.90;25.60;102648.00;;;;5044320;28;20280;-68
2022/07/10 12:49:50;;;;;;;0.13;0.13;;;25.40;99.90;26.00;102611.00;;;;5070049;28;20588;-68
2022/07/10 12:52:40;;;;;;;0.10;0.10;;;25.30;99.90;27.50;102648.00;;;;5037044;28;20210;-68
2022/07/10 12:55:15;;;;;;;0.20;0.20;;;26.10;99.90;26.20;102630.00;;;;5033445;28;20201;-69
2022/07/10 12:58:04;;;;;;;0.10;0.10;;;26.10;99.90;26.80;102631.00;;;;5053575;28;20583;-68
2022/07/10 13:00:53;;;;;;;0.20;0.20;;;26.10;99.90;25.20;102598.00;;;;5053612;28;20178;-68
2022/07/10 13:03:40;;;;;;;0.10;0.10;;;25.30;99.90;25.30;102632.00;;;;5036255;28;20187;-68
2022/07/10 13:06:27;;;;;;;0.10;0.10;;;24.70;99.90;25.90;102627.00;;;;5036981;28;20239;-68
2022/07/10 13:09:21;;;;;;;0.10;0.10;;;24.70;99.90;25.90;102626.00;;;;5036667;28;20186;-68
2022/07/10 13:12:11;;;;;;;0.10;0.10;;;24.80;99.90;26.60;102632.00;;;;5022728;28;20202;-68
2022/07/10 13:14:57;;;;;;;0.10;0.10;;;25.30;99.90;26.70;102622.00;;;;5036424;28;20224;-68
2022/07/10 13:18:02;;;;;;;0.10;0.10;;;25.60;99.90;27.10;102619.00;;;;5052896;28;20177;-68
2022/07/10 13:21:06;;;;;;;0.13;0.13;;;26.00;99.90;27.30;102613.00;;;;5023460;28;20186;-68
2022/07/10 13:23:55;;;;;;;0.10;0.10;;;26.00;99.90;24.90;102610.00;;;;5054609;28;20200;-66
2022/07/10 13:26:42;;;;;;;0.32;0.32;;;25.00;99.90;25.00;102608.00;;;;5038125;28;20185;-68
2022/07/10 13:29:28;;;;;;;0.10;0.10;;;24.80;99.90;25.70;102589.00;;;;5036328;28;20216;-68
2022/07/10 13:32:14;;;;;;;0.28;0.28;;;24.70;99.90;26.40;102590.00;;;;5052455;28;20619;-68
2022/07/10 13:35:21;;;;;;;0.98;0.52;;;25.00;99.90;25.90;102616.00;;;;5036277;28;20208;-68
2022/07/10 13:38:25;;;;;;;0.10;0.10;;;24.90;99.90;25.20;102613.00;;;;5052748;28;20178;-67
2022/07/10 13:41:26;;;;;;;0.10;0.10;;;24.80;99.90;25.30;102576.00;;;;5052767;28;20268;-67
2022/07/10 13:44:30;;;;;;;0.20;0.20;;;24.40;99.90;25.90;102621.00;;;;5035981;28;20209;-67
2022/07/10 13:47:23;;;;;;;0.10;0.10;;;24.70;99.90;26.20;102611.00;;;;5020680;28;20194;-67